Hacoda, Alabama
Current Conditions -  °F | °C
As of 11:58 AM on Friday 21 Nov 2014 (Local Time) from K0J4 Reporting Station
Clear Clear  
Wind Chill: 69°   Ceiling: Unl
Heat Index: 69°   Visibility: 10mi
Dew Point: 43°   Wind: 12mph
Humidity: 39%   Direction: 80°E
Pressure: 30.34"   Gusts: 16mph
Location:  31.0519°N, 86.3486°W
Report Text: K0J4 211758Z AUTO 08010G14KT 10SM CLR 21/06 A3034 RMK AO2 SLP273 T02060061 10206 20017 58017 $
Loading
Personal Weather Stations






























Interactive Weather Map New forecast layout! Learn more

10-Day Weather Forecast

Advertisements
Track Severe Weather on mobile